Time;durP1;ratioP1;P1;durP2;ratioP2;P2;SDS_P1;SDS_P2;PMS_P1;PMS_P2;Temp;Humidity;BMP_temperature;BMP_pressure;BME280_temperature;BME280_humidity;BME280_pressure;Samples;Min_cycle;Max_cycle;Signal;HPM_P1;HPM_P2
2021/06/22 00:00:12;;;;;;;7.67;5.63;;;;;;;24.49;55.70;94843.84;5071425;28;20200;-67
2021/06/22 00:02:39;;;;;;;8.40;5.53;;;;;;;24.43;56.01;94840.63;5067065;28;20195;-70
2021/06/22 00:05:07;;;;;;;7.57;4.80;;;;;;;24.03;57.09;94838.03;5061801;28;20219;-69
2021/06/22 00:07:34;;;;;;;11.00;4.73;;;;;;;24.28;56.36;94827.22;5057898;28;20193;-71
2021/06/22 00:10:04;;;;;;;6.03;4.90;;;;;;;24.39;56.28;94823.69;5071065;28;20223;-69
2021/06/22 00:12:31;;;;;;;5.93;4.57;;;;;;;24.30;56.62;94828.44;5071643;28;20200;-71
2021/06/22 00:14:58;;;;;;;5.73;5.10;;;;;;;24.34;56.23;94837.34;5071798;28;20274;-71
2021/06/22 00:17:25;;;;;;;6.50;4.77;;;;;;;24.45;56.32;94838.38;5071888;28;20196;-71
2021/06/22 00:19:52;;;;;;;8.73;5.10;;;;;;;24.70;55.54;94844.38;5059727;28;20246;-70
2021/06/22 00:22:19;;;;;;;5.60;5.10;;;;;;;24.74;55.73;94846.03;5064987;28;20212;-73
2021/06/22 00:24:46;;;;;;;5.40;4.90;;;;;;;24.79;55.70;94840.44;5061632;28;20204;-71
2021/06/22 00:27:13;;;;;;;7.73;4.90;;;;;;;24.64;55.49;94841.16;5055554;28;20189;-73
2021/06/22 00:29:44;;;;;;;8.50;5.07;;;;;;;24.55;55.62;94832.53;5051187;28;20287;-74
2021/06/22 00:32:11;;;;;;;6.47;5.03;;;;;;;24.63;55.37;94839.63;5053148;28;20290;-73
2021/06/22 00:34:38;;;;;;;5.57;4.70;;;;;;;24.80;55.24;94833.16;5064166;28;20196;-72
2021/06/22 00:37:05;;;;;;;6.90;5.03;;;;;;;24.89;54.92;94821.13;5051330;28;20197;-80
2021/06/22 00:39:32;;;;;;;7.43;5.73;;;;;;;24.83;54.87;94817.19;5066556;28;20234;-73
2021/06/22 00:41:59;;;;;;;11.17;6.77;;;;;;;24.89;54.83;94823.81;5065626;28;20268;-70
2021/06/22 00:44:26;;;;;;;9.83;7.13;;;;;;;24.73;54.63;94804.28;5069172;28;20207;-71
2021/06/22 00:46:53;;;;;;;16.60;8.03;;;;;;;24.73;55.23;94806.19;5070954;28;20200;-71
2021/06/22 00:49:20;;;;;;;12.50;7.63;;;;;;;24.73;55.02;94801.59;5071358;28;20210;-69
2021/06/22 00:51:48;;;;;;;13.17;8.40;;;;;;;24.82;55.11;94810.25;5069743;28;20238;-70
2021/06/22 00:54:15;;;;;;;8.77;6.37;;;;;;;24.81;54.03;94803.34;5050242;28;20235;-78
2021/06/22 00:56:42;;;;;;;10.37;6.37;;;;;;;24.84;53.50;94808.00;5062450;28;20192;-69
2021/06/22 00:59:09;;;;;;;8.53;5.93;;;;;;;24.82;53.54;94810.25;5070371;28;20299;-72
2021/06/22 01:01:36;;;;;;;8.90;6.43;;;;;;;24.80;53.79;94817.84;5061444;28;20731;-73
2021/06/22 01:04:04;;;;;;;8.40;7.13;;;;;;;24.88;54.27;94824.16;5064990;28;20811;-75
2021/06/22 01:06:34;;;;;;;9.53;6.33;;;;;;;24.71;54.86;94825.28;5070948;28;20257;-68
2021/06/22 01:09:06;;;;;;;7.47;5.77;;;;;;;24.65;55.86;94815.91;5068796;28;20204;-71
2021/06/22 01:11:38;;;;;;;7.23;5.73;;;;;;;24.20;57.48;94799.47;5063060;28;20670;-74
2021/06/22 01:14:07;;;;;;;8.53;5.83;;;;;;;24.22;57.44;94791.88;5060230;28;20243;-70
2021/06/22 01:16:34;;;;;;;9.50;6.00;;;;;;;23.99;57.84;94783.59;5070591;28;20598;-73
2021/06/22 01:19:04;;;;;;;10.60;6.40;;;;;;;24.45;56.71;94784.78;5068972;28;20204;-73
2021/06/22 01:21:51;;;;;;;7.73;6.20;;;;;;;24.66;56.22;94774.63;5057456;28;20671;-73
2021/06/22 01:24:38;;;;;;;10.10;5.53;;;;;;;24.47;56.83;94787.91;5065921;28;20189;-74
2021/06/22 01:27:08;;;;;;;6.23;5.63;;;;;;;24.51;56.57;94788.00;5050400;28;20201;-68
2021/06/22 01:29:36;;;;;;;9.63;5.97;;;;;;;24.40;56.98;94798.44;5076395;28;20192;-67
2021/06/22 01:32:07;;;;;;;9.97;6.70;;;;;;;24.31;57.42;94805.88;5064471;28;20220;-66
2021/06/22 01:34:40;;;;;;;6.40;5.77;;;;;;;24.37;57.29;94793.78;5065295;28;20201;-75
2021/06/22 01:37:09;;;;;;;8.77;6.00;;;;;;;24.38;57.47;94795.34;5054589;28;20196;-71
2021/06/22 01:39:50;;;;;;;8.90;6.70;;;;;;;24.33;58.32;94792.91;5056329;28;20208;-73
2021/06/22 01:42:18;;;;;;;10.30;6.87;;;;;;;24.59;57.36;94777.13;5068293;28;20223;-68
2021/06/22 01:44:50;;;;;;;10.43;6.30;;;;;;;24.41;57.45;94767.88;5070323;28;20198;-65
2021/06/22 01:47:17;;;;;;;7.83;6.40;;;;;;;24.28;58.06;94790.50;5066559;28;20693;-69
2021/06/22 01:49:45;;;;;;;7.63;6.83;;;;;;;24.10;58.81;94791.94;5059763;28;20224;-69
2021/06/22 01:52:16;;;;;;;7.07;6.47;;;;;;;23.84;59.53;94788.91;5068102;28;20259;-74
2021/06/22 01:54:44;;;;;;;9.63;6.50;;;;;;;24.05;59.19;94794.84;5065051;28;20217;-67
2021/06/22 01:57:12;;;;;;;8.37;6.20;;;;;;;24.24;58.64;94794.97;5061483;28;20203;-73
2021/06/22 01:59:49;;;;;;;8.97;6.37;;;;;;;24.27;58.57;94805.00;5068163;28;20203;-73
2021/06/22 02:02:22;;;;;;;17.13;6.87;;;;;;;24.21;58.48;94827.81;5067837;28;20222;-73
2021/06/22 02:05:06;;;;;;;7.90;5.63;;;;;;;24.34;58.25;94831.97;5059324;28;20199;-72
2021/06/22 02:07:34;;;;;;;6.90;6.30;;;;;;;24.09;58.92;94830.53;5050582;28;20206;-71
2021/06/22 02:10:11;;;;;;;7.03;6.30;;;;;;;23.68;59.79;94831.66;5067370;28;20206;-73
2021/06/22 02:13:05;;;;;;;9.77;6.33;;;;;;;24.02;58.70;94814.28;5065330;28;20219;-68
2021/06/22 02:15:34;;;;;;;12.53;6.53;;;;;;;24.04;58.30;94801.34;5057836;28;20231;-78
2021/06/22 02:18:04;;;;;;;7.00;6.30;;;;;;;23.83;59.11;94806.84;5054158;28;20202;-74
2021/06/22 02:20:34;;;;;;;11.40;6.43;;;;;;;22.99;61.91;94805.09;5064965;28;20273;-70
2021/06/22 02:23:02;;;;;;;7.77;6.90;;;;;;;23.17;61.65;94804.88;5048574;28;20208;-69
2021/06/22 02:25:30;;;;;;;15.60;8.93;;;;;;;23.64;60.40;94804.03;5049415;28;20200;-72
2021/06/22 02:28:05;;;;;;;8.60;7.43;;;;;;;23.71;59.50;94804.22;5068155;28;20224;-68
2021/06/22 02:30:33;;;;;;;9.47;6.90;;;;;;;23.59;60.11;94803.47;5053766;28;20203;-71
2021/06/22 02:33:01;;;;;;;8.60;6.63;;;;;;;23.41;60.88;94802.19;5048063;28;20682;-70
2021/06/22 02:35:28;;;;;;;9.03;7.50;;;;;;;23.41;60.55;94804.88;5064406;28;20207;-69
2021/06/22 02:38:03;;;;;;;13.03;8.03;;;;;;;23.64;59.90;94797.88;5064902;28;20223;-71
2021/06/22 02:40:31;;;;;;;12.57;9.13;;;;;;;23.39;60.56;94799.88;5052665;28;20200;-72
2021/06/22 02:43:00;;;;;;;10.50;8.40;;;;;;;23.29;61.12;94802.16;5068029;28;20195;-72
2021/06/22 02:45:27;;;;;;;16.50;9.60;;;;;;;23.33;60.85;94797.75;5055232;28;20347;-71
2021/06/22 02:47:54;;;;;;;13.53;8.93;;;;;;;23.27;61.23;94807.06;5061027;28;20193;-72
2021/06/22 02:50:26;;;;;;;17.17;8.20;;;;;;;23.34;60.74;94804.66;5063167;28;20203;-71
2021/06/22 02:52:53;;;;;;;12.33;8.77;;;;;;;23.35;60.73;94811.56;5070207;28;20286;-67
2021/06/22 02:55:21;;;;;;;14.67;8.73;;;;;;;23.51;60.24;94799.03;5069341;28;20662;-69
2021/06/22 02:58:04;;;;;;;9.73;8.43;;;;;;;23.54;60.52;94803.72;5069876;28;20309;-68
2021/06/22 03:00:33;;;;;;;16.23;8.83;;;;;;;23.56;60.52;94804.94;5068026;28;20282;-72
2021/06/22 03:03:07;;;;;;;17.77;8.70;;;;;;;23.65;60.66;94816.28;5057472;28;20211;-70
2021/06/22 03:05:40;;;;;;;13.30;9.33;;;;;;;23.46;61.05;94818.00;5064329;28;20197;-72
2021/06/22 03:08:07;;;;;;;13.90;9.37;;;;;;;23.54;60.48;94817.09;5056602;28;20673;-68
2021/06/22 03:10:37;;;;;;;16.73;9.23;;;;;;;23.52;60.80;94822.00;5054616;28;20211;-72
2021/06/22 03:13:07;;;;;;;17.13;9.03;;;;;;;23.58;61.02;94817.97;5061856;28;20203;-75
2021/06/22 03:15:35;;;;;;;18.80;9.87;;;;;;;23.60;61.33;94824.53;5061304;28;20196;-68
2021/06/22 03:18:02;;;;;;;12.93;9.83;;;;;;;23.60;62.00;94829.09;5069085;28;20696;-71
2021/06/22 03:20:34;;;;;;;15.10;10.17;;;;;;;23.60;61.57;94824.53;5063577;28;20290;-71
2021/06/22 03:23:06;;;;;;;13.20;9.93;;;;;;;23.63;61.85;94823.84;5057873;28;20227;-72
2021/06/22 03:25:33;;;;;;;13.87;10.17;;;;;;;23.74;61.59;94822.25;5064943;28;20188;-70
2021/06/22 03:28:03;;;;;;;16.30;10.73;;;;;;;23.76;61.05;94824.59;5048803;28;20258;-72
2021/06/22 03:30:39;;;;;;;19.40;11.57;;;;;;;23.70;61.55;94812.59;5050502;28;20208;-71
2021/06/22 03:33:06;;;;;;;16.47;10.90;;;;;;;23.69;61.61;94816.38;5068927;28;20266;-72
2021/06/22 03:35:33;;;;;;;15.13;11.00;;;;;;;23.75;61.36;94825.72;5067342;28;20203;-70
2021/06/22 03:38:00;;;;;;;17.00;11.80;;;;;;;23.76;61.37;94821.91;5062389;28;20214;-71
2021/06/22 03:40:27;;;;;;;18.10;11.40;;;;;;;23.85;61.62;94827.91;5071866;28;20184;-71
2021/06/22 03:42:54;;;;;;;15.37;11.30;;;;;;;23.43;62.02;94824.03;5072546;28;20264;-67
2021/06/22 03:45:23;;;;;;;13.93;11.50;;;;;;;23.60;61.76;94821.06;5057686;28;20212;-73
2021/06/22 03:47:52;;;;;;;15.87;10.33;;;;;;;23.63;61.28;94828.44;5072808;28;20203;-68
2021/06/22 03:50:19;;;;;;;17.40;11.33;;;;;;;23.66;61.98;94827.75;5064687;28;20192;-69
2021/06/22 03:52:47;;;;;;;13.70;11.03;;;;;;;23.69;61.97;94827.06;5070499;28;20665;-72
2021/06/22 03:55:27;;;;;;;13.40;10.63;;;;;;;23.64;62.10;94830.78;5071062;28;20207;-72
2021/06/22 03:58:05;;;;;;;16.33;10.03;;;;;;;23.65;62.64;94826.22;5067506;28;20211;-71
2021/06/22 04:00:52;;;;;;;15.67;10.40;;;;;;;23.48;63.01;94840.63;5069550;28;20682;-70
2021/06/22 04:03:26;;;;;;;14.93;9.57;;;;;;;23.69;62.53;94840.44;5061821;28;20314;-70
2021/06/22 04:06:26;;;;;;;12.23;8.63;;;;;;;23.34;63.15;94820.72;5061922;28;20210;-69
2021/06/22 04:09:00;;;;;;;11.63;8.50;;;;;;;23.62;62.50;94843.72;5070734;28;20249;-69
2021/06/22 04:11:28;;;;;;;10.23;8.57;;;;;;;23.37;62.76;94847.56;5066474;28;20224;-70
2021/06/22 04:13:57;;;;;;;10.73;7.93;;;;;;;23.42;62.55;94841.19;5061866;28;20298;-70
2021/06/22 04:16:29;;;;;;;8.40;7.60;;;;;;;23.58;62.78;94847.38;5064547;28;20273;-69
2021/06/22 04:18:56;;;;;;;12.97;8.23;;;;;;;23.53;62.95;94850.31;5056710;28;20667;-71
2021/06/22 04:21:30;;;;;;;9.87;8.70;;;;;;;23.54;63.29;94852.63;5067657;28;20243;-71
2021/06/22 04:23:57;;;;;;;14.00;8.23;;;;;;;23.57;63.39;94845.84;5068274;28;20277;-69
2021/06/22 04:26:24;;;;;;;9.93;8.77;;;;;;;23.55;63.13;94848.06;5062151;28;20193;-68
2021/06/22 04:28:52;;;;;;;11.57;8.53;;;;;;;23.58;63.01;94847.38;5048826;28;20208;-68
2021/06/22 04:31:19;;;;;;;17.93;9.17;;;;;;;23.90;62.33;94851.78;5051023;28;20206;-73
2021/06/22 04:33:47;;;;;;;12.47;8.73;;;;;;;23.79;61.76;94831.97;5062679;28;20240;-71
2021/06/22 04:36:14;;;;;;;16.27;8.73;;;;;;;23.83;62.40;94864.97;5064670;28;20203;-71
2021/06/22 04:38:41;;;;;;;11.27;9.27;;;;;;;23.80;62.18;94844.22;5067543;28;20202;-69
2021/06/22 04:41:08;;;;;;;12.50;8.93;;;;;;;23.95;61.21;94857.66;5061669;28;20192;-71
2021/06/22 04:43:35;;;;;;;46.97;40.60;;;;;;;24.07;61.76;94864.88;5050327;28;20204;-73
2021/06/22 04:46:02;;;;;;;91.40;82.03;;;;;;;24.18;61.63;94860.59;5070003;28;20261;-72
2021/06/22 04:48:29;;;;;;;16.60;12.03;;;;;;;23.89;62.21;94863.56;5069523;28;20188;-70
2021/06/22 04:50:58;;;;;;;13.87;8.97;;;;;;;23.94;62.21;94866.78;5055340;28;20737;-70
2021/06/22 04:53:26;;;;;;;13.27;8.47;;;;;;;23.83;62.02;94864.97;5070925;28;20249;-69
2021/06/22 04:55:53;;;;;;;23.13;9.13;;;;;;;24.06;61.67;94874.06;5070136;28;20198;-71
2021/06/22 04:58:20;;;;;;;11.90;8.93;;;;;;;23.86;62.25;94869.63;5060362;28;20292;-71
2021/06/22 05:00:47;;;;;;;18.80;8.90;;;;;;;23.74;62.13;94850.94;5049784;28;20280;-69
2021/06/22 05:03:14;;;;;;;19.70;8.63;;;;;;;24.01;62.13;94874.28;5050265;28;20219;-71
2021/06/22 05:05:41;;;;;;;19.30;9.27;;;;;;;24.00;62.39;94870.84;5064756;28;20192;-69
2021/06/22 05:08:08;;;;;;;15.03;9.47;;;;;;;24.02;61.24;94878.50;5069198;28;20195;-71
2021/06/22 05:10:35;;;;;;;15.07;9.37;;;;;;;24.10;61.43;94869.56;5056482;28;20196;-75
2021/06/22 05:13:02;;;;;;;17.93;10.13;;;;;;;24.18;61.11;94875.91;5050001;28;20197;-71
2021/06/22 05:15:29;;;;;;;13.90;10.27;;;;;;;24.22;60.15;94868.72;5061692;28;20210;-69
2021/06/22 05:17:56;;;;;;;40.63;34.80;;;;;;;24.48;61.12;94875.19;5055996;28;20199;-73
2021/06/22 05:20:23;;;;;;;142.37;128.57;;;;;;;24.58;60.62;94861.28;5068331;28;20204;-74
2021/06/22 05:22:50;;;;;;;17.73;14.07;;;;;;;24.42;60.23;94862.38;5057950;28;20207;-71
2021/06/22 05:25:16;;;;;;;15.87;10.57;;;;;;;;;;5068005;28;20220;-73
2021/06/22 05:27:44;;;;;;;14.13;11.77;;;;;;;24.69;58.89;94891.06;5056341;28;20190;-71
2021/06/22 05:30:12;;;;;;;16.20;11.27;;;;;;;24.67;58.99;94893.31;5055492;28;20201;-68
2021/06/22 05:32:39;;;;;;;13.40;10.97;;;;;;;24.66;59.27;94889.84;5062979;28;20219;-70
2021/06/22 05:35:06;;;;;;;14.07;11.73;;;;;;;24.32;59.45;94893.16;5065673;28;20188;-71
2021/06/22 05:37:33;;;;;;;19.13;11.40;;;;;;;24.04;59.54;94895.03;5056945;28;20630;-70
2021/06/22 05:40:00;;;;;;;16.87;11.37;;;;;;;24.15;60.41;94893.41;5053201;28;20200;-72
2021/06/22 05:42:27;;;;;;;16.33;10.07;;;;;;;24.31;59.88;94886.22;5067427;28;20219;-69
2021/06/22 05:44:54;;;;;;;17.17;10.00;;;;;;;24.23;60.61;94884.47;5054637;28;20204;-70
2021/06/22 05:47:21;;;;;;;16.90;9.43;;;;;;;24.36;59.73;94875.25;5065659;28;20568;-70
2021/06/22 05:49:47;;;;;;;14.93;10.37;;;;;;;24.48;59.16;94880.56;5049938;28;20205;-72
2021/06/22 05:52:14;;;;;;;20.73;10.30;;;;;;;24.36;59.16;94890.56;5063868;28;20210;-72
2021/06/22 05:54:41;;;;;;;12.67;9.97;;;;;;;24.30;59.99;94891.91;5058345;28;20199;-70
2021/06/22 05:57:08;;;;;;;16.30;9.43;;;;;;;24.43;60.18;94886.19;5068859;28;20194;-69
2021/06/22 05:59:35;;;;;;;12.80;9.10;;;;;;;24.54;59.53;94881.09;5056205;28;20184;-70
2021/06/22 06:02:04;;;;;;;17.77;9.80;;;;;;;24.60;59.69;94888.53;5070230;28;20227;-71
2021/06/22 06:04:31;;;;;;;16.77;10.57;;;;;;;24.44;59.23;94890.41;5064079;28;20196;-72
2021/06/22 06:06:58;;;;;;;17.37;10.70;;;;;;;24.58;59.23;94888.09;5061387;28;20560;-69
2021/06/22 06:09:26;;;;;;;12.77;8.63;;;;;;;24.60;59.25;94898.44;5065572;28;20200;-69
2021/06/22 06:11:53;;;;;;;15.13;9.23;;;;;;;24.79;58.72;94891.34;5059831;28;20299;-71
2021/06/22 06:14:20;;;;;;;14.23;9.00;;;;;;;25.08;57.82;94890.94;5066847;28;20199;-68
2021/06/22 06:16:48;;;;;;;11.23;8.33;;;;;;;25.07;57.26;94892.03;5058240;28;20196;-68
2021/06/22 06:19:15;;;;;;;11.77;8.40;;;;;;;25.06;57.28;94895.88;5062598;28;20188;-70
2021/06/22 06:21:42;;;;;;;12.77;7.20;;;;;;;25.15;57.13;94900.25;5049954;28;20204;-69
2021/06/22 06:24:10;;;;;;;12.37;7.23;;;;;;;24.98;57.95;94896.03;5062865;28;20226;-69
2021/06/22 06:32:02;;;;;;;19.60;7.73;;;;;;;24.96;58.08;94901.72;5049498;28;20259;-72
2021/06/22 06:34:29;;;;;;;9.43;7.47;;;;;;;25.30;56.73;94904.84;5068707;28;20200;-69
2021/06/22 06:36:56;;;;;;;16.10;6.90;;;;;;;25.44;56.63;94905.97;5059634;28;20200;-70
2021/06/22 06:39:23;;;;;;;7.30;6.10;;;;;;;25.38;56.62;94909.28;5069561;28;20196;-71
2021/06/22 06:41:50;;;;;;;13.93;6.90;;;;;;;25.38;56.46;94903.94;5068318;28;20286;-69
2021/06/22 06:44:17;;;;;;;9.30;7.50;;;;;;;25.58;55.14;94910.91;5069943;28;20673;-70
2021/06/22 06:46:44;;;;;;;11.00;7.47;;;;;;;25.31;54.82;94906.41;5070245;28;20227;-71
2021/06/22 06:49:11;;;;;;;7.53;6.80;;;;;;;25.57;55.74;94912.00;5069526;28;20202;-69
2021/06/22 06:51:38;;;;;;;9.30;7.33;;;;;;;25.70;56.47;94918.84;5070154;28;20204;-72
2021/06/22 06:54:05;;;;;;;11.10;7.43;;;;;;;25.98;55.12;94925.59;5055224;28;20200;-69
2021/06/22 06:56:32;;;;;;;8.70;7.80;;;;;;;25.81;54.63;94920.63;5060485;28;20208;-69
2021/06/22 06:59:00;;;;;;;10.57;7.50;;;;;;;25.95;54.78;94920.16;5064019;28;20674;-69
2021/06/22 07:01:27;;;;;;;14.90;8.50;;;;;;;25.57;53.97;94930.81;5058441;28;20208;-70
2021/06/22 07:03:55;;;;;;;11.20;7.87;;;;;;;25.86;53.52;94927.63;5055714;28;20228;-70
2021/06/22 07:06:22;;;;;;;11.67;8.07;;;;;;;25.74;56.07;94908.97;5070110;28;20206;-71
2021/06/22 07:08:49;;;;;;;12.30;9.70;;;;;;;25.82;56.08;94926.78;5069293;28;20219;-72
2021/06/22 07:11:20;;;;;;;11.33;7.80;;;;;;;25.94;56.18;94923.97;5068927;28;20200;-72
2021/06/22 07:13:50;;;;;;;8.93;7.20;;;;;;;26.21;55.03;94927.63;5073018;28;20672;-70
2021/06/22 07:16:17;;;;;;;12.93;8.17;;;;;;;26.26;53.39;94930.81;5069332;28;20197;-72
2021/06/22 07:18:44;;;;;;;11.80;8.30;;;;;;;25.93;54.19;94927.78;5055762;28;20254;-70
2021/06/22 07:21:12;;;;;;;13.73;8.30;;;;;;;25.96;53.86;94929.78;5065020;28;20197;-71
2021/06/22 07:23:40;;;;;;;11.60;8.23;;;;;;;25.84;53.37;94936.03;5053224;28;20227;-70
2021/06/22 07:26:07;;;;;;;13.57;8.43;;;;;;;25.89;54.25;94926.94;5053729;28;20251;-69
2021/06/22 07:28:34;;;;;;;13.57;8.63;;;;;;;25.96;53.56;94929.78;5053594;28;20192;-70
2021/06/22 07:31:07;;;;;;;12.17;8.47;;;;;;;26.36;53.01;94935.63;5052698;28;20219;-69
2021/06/22 07:33:35;;;;;;;18.40;8.07;;;;;;;26.47;53.02;94931.25;5053104;28;20235;-70
2021/06/22 07:36:03;;;;;;;13.67;8.60;;;;;;;26.74;53.16;94919.50;5056987;28;20687;-70
2021/06/22 07:38:29;;;;;;;13.80;8.33;;;;;;;26.89;51.48;94926.69;5059146;28;20579;-70
2021/06/22 07:40:56;;;;;;;14.87;9.33;;;;;;;27.36;50.41;94923.66;5072938;28;20223;-69
2021/06/22 07:43:24;;;;;;;11.13;8.83;;;;;;;26.85;51.21;94915.09;5060198;28;20224;-68
2021/06/22 07:45:52;;;;;;;14.57;9.17;;;;;;;27.02;50.44;94920.00;5064788;28;20207;-69
2021/06/22 07:48:19;;;;;;;16.93;9.43;;;;;;;26.70;51.21;94921.34;5072831;28;20210;-71
2021/06/22 07:50:46;;;;;;;18.10;9.47;;;;;;;27.01;50.72;94921.13;5058742;28;20210;-72
2021/06/22 07:53:13;;;;;;;12.17;8.40;;;;;;;27.42;51.52;94924.16;5073695;28;20203;-71
2021/06/22 07:55:41;;;;;;;10.83;9.23;;;;;;;27.57;50.23;94928.63;5058311;28;20205;-70
2021/06/22 07:58:08;;;;;;;15.83;8.23;;;;;;;27.58;49.93;94924.78;5072707;28;20196;-69
2021/06/22 08:00:39;;;;;;;15.80;8.90;;;;;;;27.71;50.95;94928.81;5070654;28;20282;-71
2021/06/22 08:03:07;;;;;;;14.80;8.33;;;;;;;27.97;50.47;94913.44;5061258;28;20643;-71
2021/06/22 08:05:34;;;;;;;14.53;8.23;;;;;;;28.16;50.40;94922.53;5072642;28;20196;-70
2021/06/22 08:08:02;;;;;;;13.57;8.33;;;;;;;28.45;49.97;94919.81;5073371;28;20192;-70
2021/06/22 08:10:29;;;;;;;14.97;8.83;;;;;;;28.48;49.62;94918.31;5071961;28;20658;-70
2021/06/22 08:12:57;;;;;;;14.17;8.50;;;;;;;28.77;49.07;94910.22;5072424;28;20211;-69
2021/06/22 08:15:26;;;;;;;18.03;9.70;;;;;;;28.44;48.81;94912.88;5072946;28;20261;-69
2021/06/22 08:17:54;;;;;;;16.10;8.73;;;;;;;28.70;48.00;94898.56;5072444;28;20290;-68
2021/06/22 08:20:21;;;;;;;14.93;9.80;;;;;;;28.57;47.67;94906.13;5057855;28;20193;-68
2021/06/22 08:22:54;;;;;;;18.70;9.07;;;;;;;28.67;49.37;94905.47;5072233;28;20219;-69
2021/06/22 08:25:24;;;;;;;13.37;8.63;;;;;;;28.79;48.24;94907.91;5057982;28;20571;-70
2021/06/22 08:27:53;;;;;;;12.17;8.60;;;;;;;28.51;48.18;94902.19;5065249;28;20322;-68
2021/06/22 08:30:22;;;;;;;16.83;8.83;;;;;;;28.59;48.09;94895.78;5051980;28;20199;-71
2021/06/22 08:32:49;;;;;;;14.50;8.67;;;;;;;28.66;47.95;94901.22;5058283;28;20736;-70
2021/06/22 08:35:16;;;;;;;16.50;8.77;;;;;;;29.03;48.11;94901.22;5071716;28;20654;-71
2021/06/22 08:37:43;;;;;;;19.60;9.40;;;;;;;29.29;46.72;94903.75;5072134;28;20591;-71
2021/06/22 08:40:11;;;;;;;16.83;8.93;;;;;;;29.07;48.49;94904.69;5071433;28;20199;-69
2021/06/22 08:42:42;;;;;;;14.33;8.60;;;;;;;29.27;47.78;94906.06;5072078;28;20694;-70
2021/06/22 08:45:13;;;;;;;18.20;9.30;;;;;;;29.50;47.40;94911.25;5057697;28;20204;-69
2021/06/22 08:47:40;;;;;;;17.03;8.80;;;;;;;29.45;46.66;94911.63;5058551;28;20199;-70
2021/06/22 08:50:09;;;;;;;13.43;9.10;;;;;;;29.77;45.98;94907.22;5071331;28;20222;-70
2021/06/22 08:52:36;;;;;;;17.17;9.50;;;;;;;29.47;45.50;94898.53;5066421;28;20690;-68
2021/06/22 08:55:07;;;;;;;20.67;9.33;;;;;;;29.45;45.36;94906.22;5063848;28;20196;-69
2021/06/22 08:57:35;;;;;;;18.10;8.90;;;;;;;29.53;46.07;94897.00;5072025;28;20688;-70
2021/06/22 09:00:05;;;;;;;18.77;9.80;;;;;;;29.74;45.41;94902.59;5069880;28;20200;-69
2021/06/22 09:02:33;;;;;;;24.33;10.23;;;;;;;29.88;44.96;94897.25;5057811;28;20294;-69
2021/06/22 09:05:02;;;;;;;19.20;10.60;;;;;;;30.16;44.71;94897.44;5071172;28;20210;-69
2021/06/22 09:07:53;;;;;;;20.60;10.27;;;;;;;30.18;44.25;94897.81;5055503;28;20254;-71
2021/06/22 09:10:27;;;;;;;21.03;10.50;;;;;;;30.12;43.88;94891.22;5062555;28;20207;-68
2021/06/22 09:12:55;;;;;;;19.20;10.63;;;;;;;29.98;44.69;94896.56;5071325;28;20198;-69
2021/06/22 09:15:23;;;;;;;26.07;10.60;;;;;;;30.01;44.80;94898.50;5060893;28;20219;-70
2021/06/22 09:17:51;;;;;;;22.13;11.50;;;;;;;30.21;44.69;94893.56;5051022;28;20224;-69
2021/06/22 09:20:37;;;;;;;21.07;10.47;;;;;;;30.39;45.26;94900.63;5064606;28;20279;-70
2021/06/22 09:23:18;;;;;;;25.60;10.80;;;;;;;30.20;44.66;94887.38;5060910;28;20222;-69
2021/06/22 09:25:46;;;;;;;18.70;10.63;;;;;;;30.34;44.83;94897.53;5053149;28;20332;-68
2021/06/22 09:28:16;;;;;;;19.00;10.33;;;;;;;30.50;45.56;94896.03;5061486;28;20261;-68
2021/06/22 09:30:50;;;;;;;20.40;10.33;;;;;;;30.35;46.42;94877.44;5053396;28;20218;-68
2021/06/22 09:33:31;;;;;;;19.00;10.23;;;;;;;30.41;43.85;94903.72;5050845;28;20294;-70
2021/06/22 09:36:25;;;;;;;26.97;10.83;;;;;;;30.71;43.46;94890.66;5050370;28;20287;-69
2021/06/22 09:39:03;;;;;;;20.97;12.00;;;;;;;31.04;43.93;94907.78;5068620;28;20202;-69
2021/06/22 09:41:35;;;;;;;20.27;10.43;;;;;;;31.01;44.00;94892.31;5059102;28;20196;-69
2021/06/22 09:44:14;;;;;;;29.03;10.73;;;;;;;31.33;43.74;94893.13;5069175;28;20228;-69
2021/06/22 09:46:44;;;;;;;25.20;11.40;;;;;;;31.57;43.33;94889.63;5058446;28;20265;-69
2021/06/22 09:49:21;;;;;;;24.07;12.03;;;;;;;31.52;43.35;94888.09;5063981;28;20197;-69
2021/06/22 09:52:09;;;;;;;25.33;10.53;;;;;;;31.80;42.88;94890.00;5066085;28;20183;-69
2021/06/22 09:54:45;;;;;;;21.23;11.00;;;;;;;31.93;42.75;94904.72;5070243;28;20203;-70
2021/06/22 09:57:17;;;;;;;23.30;11.23;;;;;;;32.16;42.45;94886.06;5070271;28;20193;-71
2021/06/22 09:59:50;;;;;;;25.97;12.00;;;;;;;32.10;41.30;94898.47;5069925;28;20261;-68
2021/06/22 10:02:18;;;;;;;25.03;12.07;;;;;;;32.36;41.65;94895.28;5070445;28;20234;-68
2021/06/22 10:04:56;;;;;;;26.40;10.77;;;;;;;32.47;41.20;94887.91;5070213;28;20231;-68
2021/06/22 10:07:24;;;;;;;27.73;11.30;;;;;;;32.75;40.71;94885.06;5070297;28;20227;-68
2021/06/22 10:09:54;;;;;;;26.27;11.93;;;;;;;32.58;41.04;94879.72;5069835;28;20270;-69
2021/06/22 10:12:25;;;;;;;31.20;11.93;;;;;;;32.63;39.96;94882.00;5056839;28;20224;-70
2021/06/22 10:14:55;;;;;;;29.53;12.47;;;;;;;32.01;39.79;94873.69;5057096;28;20199;-69
2021/06/22 10:17:25;;;;;;;47.57;11.37;;;;;;;32.43;39.99;94884.44;5070452;28;20188;-69
2021/06/22 10:19:54;;;;;;;26.50;11.90;;;;;;;32.31;40.69;94876.72;5058651;28;20619;-69
2021/06/22 10:22:24;;;;;;;22.00;11.30;;;;;;;32.89;39.11;94877.97;5054341;28;20199;-69
2021/06/22 10:24:56;;;;;;;33.50;11.63;;;;;;;33.12;39.14;94849.13;5058845;28;20713;-69
2021/06/22 10:27:23;;;;;;;28.63;11.80;;;;;;;33.08;38.51;94858.50;5050114;28;20197;-67
2021/06/22 10:29:53;;;;;;;29.00;11.63;;;;;;;33.26;38.29;94865.34;5059754;28;20196;-69
2021/06/22 10:32:23;;;;;;;27.70;11.33;;;;;;;33.09;39.19;94863.50;5053873;28;20243;-68
2021/06/22 10:34:53;;;;;;;29.97;11.60;;;;;;;33.37;38.68;94859.81;5049883;28;20243;-68
2021/06/22 10:37:32;;;;;;;31.80;11.07;;;;;;;33.36;39.73;94858.25;5055707;28;20195;-68
2021/06/22 10:40:20;;;;;;;38.97;10.97;;;;;;;33.60;38.53;94857.28;5068642;28;20195;-68
2021/06/22 10:42:50;;;;;;;31.23;10.80;;;;;;;33.63;38.04;94856.50;5049948;28;20671;-68
2021/06/22 10:45:19;;;;;;;25.37;10.80;;;;;;;33.46;37.90;94858.22;5063468;28;20261;-70
2021/06/22 10:47:48;;;;;;;23.67;10.50;;;;;;;33.57;39.30;94858.88;5061524;28;20283;-68
2021/06/22 10:50:24;;;;;;;29.67;11.23;;;;;;;33.86;38.68;94859.38;5073979;28;20286;-69
2021/06/22 10:52:58;;;;;;;28.00;11.13;;;;;;;33.95;37.83;94840.66;5074328;28;20188;-68
2021/06/22 10:55:27;;;;;;;37.87;11.17;;;;;;;34.02;37.53;94856.88;5073403;28;20199;-69
2021/06/22 10:58:04;;;;;;;35.33;10.30;;;;;;;33.83;34.95;94854.75;5074105;28;20203;-70
2021/06/22 11:00:37;;;;;;;29.03;9.40;;;;;;;34.27;36.42;94857.34;5073784;28;20567;-70
2021/06/22 11:03:34;;;;;;;26.20;9.67;;;;;;;33.94;35.94;94857.34;5074001;28;20649;-69
2021/06/22 11:06:10;;;;;;;31.23;9.83;;;;;;;33.68;35.75;94856.06;5055645;28;20256;-69
2021/06/22 11:08:41;;;;;;;31.40;9.73;;;;;;;33.73;35.68;94861.03;5064755;28;20393;-70
2021/06/22 11:11:09;;;;;;;39.60;9.00;;;;;;;34.05;35.68;94853.34;5073119;28;20612;-69
2021/06/22 11:13:44;;;;;;;34.43;9.57;;;;;;;34.20;35.08;94852.00;5073688;28;20697;-70
2021/06/22 11:16:17;;;;;;;28.43;9.63;;;;;;;34.50;34.49;94854.78;5059456;28;20198;-69
2021/06/22 11:18:54;;;;;;;38.73;9.57;;;;;;;34.53;34.94;94855.91;5071123;28;20203;-69
2021/06/22 11:21:20;;;;;;;35.60;10.27;;;;;;;34.25;34.72;94853.53;5053973;28;20246;-68
2021/06/22 11:24:02;;;;;;;25.80;9.37;;;;;;;34.31;34.58;94847.22;5054768;28;20235;-68
2021/06/22 11:26:50;;;;;;;33.43;9.77;;;;;;;34.39;35.72;94859.56;5063756;28;20200;-68
2021/06/22 11:29:35;;;;;;;36.07;9.10;;;;;;;33.97;32.92;94843.75;5066613;28;20631;-69
2021/06/22 11:32:03;;;;;;;42.10;10.17;;;;;;;34.10;33.84;94835.81;5066787;28;20227;-67
2021/06/22 11:34:33;;;;;;;35.27;9.27;;;;;;;34.08;35.61;94844.38;5053291;28;20216;-69
2021/06/22 11:37:06;;;;;;;28.73;8.30;;;;;;;34.19;34.24;94834.16;5056428;28;20211;-70
2021/06/22 11:39:37;;;;;;;38.97;9.73;;;;;;;34.42;34.81;94836.97;5072602;28;20199;-70
2021/06/22 11:42:14;;;;;;;38.17;9.57;;;;;;;34.42;34.53;94839.69;5070408;28;20756;-68